createdAt,value
2018-11-23T00:10:04.704Z,2.41
2018-11-23T00:20:23.762Z,2.31
2018-11-23T00:30:42.098Z,2.29
2018-11-23T00:41:00.583Z,2.32
2018-11-23T00:51:18.573Z,2.25
2018-11-23T01:01:54.510Z,2.22
2018-11-23T01:12:12.405Z,2.38
2018-11-23T01:22:30.582Z,2.54
2018-11-23T01:32:49.318Z,2.52
2018-11-23T01:43:07.797Z,2.59
2018-11-23T01:53:26.037Z,2.39
2018-11-23T02:03:43.800Z,2.45
2018-11-23T02:14:01.784Z,2.29
2018-11-23T02:24:19.769Z,2.25
2018-11-23T02:34:38.639Z,2.36
2018-11-23T02:44:56.823Z,2.10
2018-11-23T02:55:16.590Z,1.98
2018-11-23T03:05:35.231Z,1.87
2018-11-23T03:15:52.984Z,1.96
2018-11-23T03:26:10.818Z,2.08
2018-11-23T03:36:28.887Z,2.14
2018-11-23T03:46:47.117Z,2.10
2018-11-23T03:57:05.285Z,1.91
2018-11-23T04:07:24.933Z,1.81
2018-11-23T04:17:43.479Z,1.91
2018-11-23T04:28:01.825Z,1.82
2018-11-23T04:38:19.830Z,1.74
2018-11-23T04:48:37.719Z,1.82
2018-11-23T04:58:56.046Z,1.74
2018-11-23T05:09:14.330Z,1.78
2018-11-23T05:19:32.350Z,1.78
2018-11-23T05:29:50.273Z,1.75
2018-11-23T05:40:10.006Z,1.78
2018-11-23T05:50:27.829Z,1.75
2018-11-23T06:00:46.204Z,1.82
2018-11-23T06:11:04.009Z,1.72
2018-11-23T06:21:21.894Z,1.73
2018-11-23T06:31:39.855Z,1.62
2018-11-23T06:41:58.113Z,1.57
2018-11-23T06:52:16.514Z,1.82
2018-11-23T07:02:34.482Z,1.75
2018-11-23T07:12:52.426Z,1.72
2018-11-23T07:23:10.412Z,1.76
2018-11-23T07:33:28.504Z,2.09
2018-11-23T07:43:46.667Z,2.16
2018-11-23T07:54:04.651Z,2.50
2018-11-23T08:04:23.543Z,2.69
2018-11-23T08:14:42.057Z,2.83
2018-11-23T08:25:00.799Z,2.90
2018-11-23T08:35:18.592Z,2.94
2018-11-23T08:45:36.922Z,2.76
2018-11-23T08:55:54.463Z,3.19
2018-11-23T09:06:12.732Z,3.59
2018-11-23T09:16:30.762Z,3.60
2018-11-23T09:26:49.035Z,3.43
2018-11-23T09:37:06.874Z,3.41
2018-11-23T09:47:24.799Z,3.85
2018-11-23T09:57:42.777Z,4.06
2018-11-23T10:08:08.178Z,4.26
2018-11-23T10:18:26.045Z,4.26
2018-11-23T10:28:44.180Z,4.32
2018-11-23T10:39:01.963Z,4.31
2018-11-23T10:49:20.330Z,4.73
2018-11-23T10:59:38.261Z,4.96
2018-11-23T11:09:56.382Z,5.04
2018-11-23T11:20:14.475Z,5.09
2018-11-23T11:30:32.741Z,5.39
2018-11-23T11:40:50.564Z,5.29
2018-11-23T11:51:09.722Z,5.24
2018-11-23T12:01:27.894Z,5.57
2018-11-23T12:11:45.963Z,5.68
2018-11-23T12:22:04.710Z,5.42
2018-11-23T12:32:22.011Z,5.36
2018-11-23T12:42:40.657Z,5.41
2018-11-23T12:53:05.806Z,5.80
2018-11-23T13:03:16.594Z,5.86
2018-11-23T13:13:34.647Z,5.69
2018-11-23T13:23:52.432Z,5.90
2018-11-23T13:34:10.392Z,5.92
2018-11-23T13:44:28.475Z,5.71
2018-11-23T13:54:47.079Z,5.73
2018-11-23T14:05:07.006Z,5.76
2018-11-23T14:15:25.998Z,5.77
2018-11-23T14:25:43.776Z,5.80
2018-11-23T14:36:01.878Z,5.64
2018-11-23T14:46:20.012Z,5.56
2018-11-23T14:56:37.970Z,5.63
2018-11-23T15:06:55.886Z,5.63
2018-11-23T15:17:14.066Z,5.70
2018-11-23T15:27:32.165Z,5.73
2018-11-23T15:37:50.168Z,5.61
2018-11-23T15:48:08.832Z,5.61
2018-11-23T15:58:27.565Z,5.53
2018-11-23T16:08:45.547Z,5.35
2018-11-23T16:19:03.786Z,5.41
2018-11-23T16:29:21.362Z,5.31
2018-11-23T16:39:39.636Z,5.30
2018-11-23T16:49:57.812Z,5.33
2018-11-23T17:00:21.244Z,5.22
2018-11-23T17:10:38.901Z,5.27
2018-11-23T17:20:59.246Z,5.06
2018-11-23T17:31:14.679Z,5.02
2018-11-23T17:41:32.613Z,4.93
2018-11-23T17:51:50.619Z,4.92
2018-11-23T18:02:08.717Z,4.88
2018-11-23T18:12:26.909Z,4.93
2018-11-23T18:22:45.475Z,4.84
2018-11-23T18:33:04.578Z,4.83
2018-11-23T18:43:22.433Z,4.99
2018-11-23T18:53:40.539Z,4.69
2018-11-23T19:03:58.582Z,4.56
2018-11-23T19:14:16.603Z,4.56
2018-11-23T19:24:34.632Z,4.68
2018-11-23T19:34:52.831Z,4.64
2018-11-23T19:45:17.408Z,4.56
2018-11-23T19:55:36.316Z,4.53
2018-11-23T20:05:54.785Z,4.41
2018-11-23T20:16:12.471Z,4.34
2018-11-23T20:26:31.365Z,4.19
2018-11-23T20:36:49.445Z,4.22
2018-11-23T20:47:07.637Z,4.10
2018-11-23T20:57:25.961Z,4.12
2018-11-23T21:07:44.916Z,3.99
2018-11-23T21:18:04.245Z,4.04
2018-11-23T21:28:22.056Z,4.04
2018-11-23T21:38:40.123Z,3.98
2018-11-23T21:48:58.222Z,4.01
2018-11-23T21:59:15.972Z,3.91
2018-11-23T22:09:34.187Z,3.96
2018-11-23T22:19:52.124Z,4.02
2018-11-23T22:30:23.415Z,3.95
2018-11-23T22:40:41.169Z,3.94
2018-11-23T22:50:59.150Z,3.78
2018-11-23T23:01:17.326Z,3.46
2018-11-23T23:11:35.110Z,3.34
2018-11-23T23:21:53.025Z,3.42
2018-11-23T23:32:10.913Z,3.29
2018-11-23T23:42:28.916Z,3.15
2018-11-23T23:52:46.947Z,3.33
